Αθήνα, Ελλάδα

10:41 PM EEST on Ιούλιος 29, 2016 (GMT +0300)
SV1GST - SOURMENA HELLINIKO | | Change Station

Elev 300 ft 37.89 °N, 23.75 °E | Updated 32 seconds ago

Clear
Αίθριος
86.6 ° F
Feels Like 84 ° F
N
8.0
Ανεμος Μεταβλητός Ανεμος from Βόρειος
Gusts 8.0 mph

Σήμερα
High -- | Low -- ° F
--% Chance of Precip.
Yesterday
High -- | Low -- ° F
Precip. -- in
Ατμοσφαιρική Πίεση 29.83 in
Ορατότητα -9999.0 Μίλια
Σύννεφα
Δείκτης Δυσφορίας 84 ° F
Σημείο Δρόσου 48 ° F
Υγρασία 26%
Rainfall 0.00 in
Snow Depth Not available.
6:25 AM 8:36 PM
Μηνίσκος, 19% visible
METAR LGAV 291920Z VRB03KT CAVOK 30/06 Q1010 NOSIG
Ατμοσφαιρική Πίεση 29.83 in
Ορατότητα -9999.0 Μίλια
Σύννεφα
Δείκτης Δυσφορίας 84 ° F
Σημείο Δρόσου 48 ° F
Υγρασία 26%
Rainfall 0.00 in
Snow Depth Not available.
6:25 AM 8:36 PM
Μηνίσκος, 19% visible
METAR LGAV 291920Z VRB03KT CAVOK 30/06 Q1010 NOSIG

10-Day Weather Forecast

×

Almanac

Αστρονομία

Jul. 29, 2016 Rise Set
Actual Time
Civil Twilight
Nautical Twilight
Astronomical Twilight
Moon
Length Of Visible Light
Διάρκεια ημέρας
Tomorrow will be .
, % of the Moon is Illuminated

Today's Extremes

Country Highs Country Lows

Community

WunderPhotos

Upload Photos

1,928,401 photos uploaded!

WunderBlog® & News

Nearby

Air Quality

  Air Quality AQ Index Pollutant
Not available.

Snow Depth

Station Depth Elevation

Earthquake Activity

City Distance Mag. Time & Date
Minimum magnitude displayed is 2.5.

Coastal Water Temperatures

Τοποθεσία Θερμοκρασία

Stations

Nearby Weather Stations

Station Location Temp Δείκτης Ψυχρότητας Σημείο Δρόσου Υγρασία Ανεμος Precip. Elev Ενημερώθηκε Type